Terminal Aerodrome Forecast
Issued by NWS

Home | Current Version | Previous Version | Graphics & Text | Print | Product List | Glossary On
Versions: 1 2 3 4 5 6 7 8 9 10 11 12 13 14 15 16 17 18 19 20 21 22 23 24
000
FTUS43 KICT 181500 AAA
TAFSLN
TAF AMD
KSLN 181531Z 1816/1912 11011KT P6SM BKN015 BKN025
     FM181700 11008KT P6SM BKN035
     FM190700 15008KT P6SM BKN020=

USA.gov is the U.S. government's official web portal to all federal, state and local government web resources and services.